sensor_id;sensor_type;location;lat;lon;timestamp;temperature;humidity
9125;DHT22;4597;48.730;9.114;2022-07-29T00:00:11;20.60;99.90
9125;DHT22;4597;48.730;9.114;2022-07-29T00:02:37;20.60;99.90
9125;DHT22;4597;48.730;9.114;2022-07-29T00:05:04;20.50;99.90
9125;DHT22;4597;48.730;9.114;2022-07-29T00:07:30;20.50;99.90
9125;DHT22;4597;48.730;9.114;2022-07-29T00:09:56;20.50;99.90
9125;DHT22;4597;48.730;9.114;2022-07-29T00:12:23;20.50;99.90
9125;DHT22;4597;48.730;9.114;2022-07-29T00:14:49;20.50;99.90
9125;DHT22;4597;48.730;9.114;2022-07-29T00:17:15;20.50;99.90
9125;DHT22;4597;48.730;9.114;2022-07-29T00:19:40;20.50;99.90
9125;DHT22;4597;48.730;9.114;2022-07-29T00:22:06;20.40;99.90
9125;DHT22;4597;48.730;9.114;2022-07-29T00:24:32;20.50;99.90
9125;DHT22;4597;48.730;9.114;2022-07-29T00:26:58;20.50;99.90
9125;DHT22;4597;48.730;9.114;2022-07-29T00:29:23;20.40;99.90
9125;DHT22;4597;48.730;9.114;2022-07-29T00:31:49;20.30;99.90
9125;DHT22;4597;48.730;9.114;2022-07-29T00:34:15;20.30;99.90
9125;DHT22;4597;48.730;9.114;2022-07-29T00:36:59;20.30;99.90
9125;DHT22;4597;48.730;9.114;2022-07-29T00:39:24;20.20;99.90
9125;DHT22;4597;48.730;9.114;2022-07-29T00:41:50;20.10;99.90
9125;DHT22;4597;48.730;9.114;2022-07-29T00:44:15;20.10;99.90
9125;DHT22;4597;48.730;9.114;2022-07-29T00:46:41;20.10;99.90
9125;DHT22;4597;48.730;9.114;2022-07-29T00:49:07;20.00;99.90
9125;DHT22;4597;48.730;9.114;2022-07-29T00:51:35;20.00;99.90
9125;DHT22;4597;48.730;9.114;2022-07-29T00:54:02;20.00;99.90
9125;DHT22;4597;48.730;9.114;2022-07-29T00:56:30;19.90;99.90
9125;DHT22;4597;48.730;9.114;2022-07-29T00:58:56;19.90;99.90
9125;DHT22;4597;48.730;9.114;2022-07-29T01:01:22;19.90;99.90
9125;DHT22;4597;48.730;9.114;2022-07-29T01:03:48;20.00;99.90
9125;DHT22;4597;48.730;9.114;2022-07-29T01:06:15;20.00;99.90
9125;DHT22;4597;48.730;9.114;2022-07-29T01:08:40;20.00;99.90
9125;DHT22;4597;48.730;9.114;2022-07-29T01:11:06;20.00;99.90
9125;DHT22;4597;48.730;9.114;2022-07-29T01:13:32;20.00;99.90
9125;DHT22;4597;48.730;9.114;2022-07-29T01:16:03;20.00;99.90
9125;DHT22;4597;48.730;9.114;2022-07-29T01:18:34;20.00;99.90
9125;DHT22;4597;48.730;9.114;2022-07-29T01:24:23;20.10;99.90
9125;DHT22;4597;48.730;9.114;2022-07-29T01:26:59;20.10;99.90
9125;DHT22;4597;48.730;9.114;2022-07-29T01:29:30;20.10;99.90
9125;DHT22;4597;48.730;9.114;2022-07-29T01:32:15;20.10;99.90
9125;DHT22;4597;48.730;9.114;2022-07-29T01:35:15;20.10;99.90
9125;DHT22;4597;48.730;9.114;2022-07-29T01:38:04;20.10;99.90
9125;DHT22;4597;48.730;9.114;2022-07-29T01:40:39;20.10;99.90
9125;DHT22;4597;48.730;9.114;2022-07-29T01:43:10;20.10;99.90
9125;DHT22;4597;48.730;9.114;2022-07-29T01:46:00;20.10;99.90
9125;DHT22;4597;48.730;9.114;2022-07-29T01:48:31;20.10;99.90
9125;DHT22;4597;48.730;9.114;2022-07-29T01:51:07;20.10;99.90
9125;DHT22;4597;48.730;9.114;2022-07-29T01:53:37;20.10;99.90
9125;DHT22;4597;48.730;9.114;2022-07-29T01:56:05;20.10;99.90
9125;DHT22;4597;48.730;9.114;2022-07-29T01:58:32;20.10;99.90
9125;DHT22;4597;48.730;9.114;2022-07-29T02:01:01;20.00;99.90
9125;DHT22;4597;48.730;9.114;2022-07-29T02:03:27;20.00;99.90
9125;DHT22;4597;48.730;9.114;2022-07-29T02:05:55;19.90;99.90
9125;DHT22;4597;48.730;9.114;2022-07-29T02:08:22;19.90;99.90
9125;DHT22;4597;48.730;9.114;2022-07-29T02:10:49;19.90;99.90
9125;DHT22;4597;48.730;9.114;2022-07-29T02:13:17;19.80;99.90
9125;DHT22;4597;48.730;9.114;2022-07-29T02:15:44;19.70;99.90
9125;DHT22;4597;48.730;9.114;2022-07-29T02:18:15;19.70;99.90
9125;DHT22;4597;48.730;9.114;2022-07-29T02:20:45;19.70;99.90
9125;DHT22;4597;48.730;9.114;2022-07-29T02:23:12;19.70;99.90
9125;DHT22;4597;48.730;9.114;2022-07-29T02:25:41;19.70;99.90
9125;DHT22;4597;48.730;9.114;2022-07-29T02:28:07;19.70;99.90
9125;DHT22;4597;48.730;9.114;2022-07-29T02:30:35;19.60;99.90
9125;DHT22;4597;48.730;9.114;2022-07-29T02:33:02;19.60;99.90
9125;DHT22;4597;48.730;9.114;2022-07-29T02:35:29;19.60;99.90
9125;DHT22;4597;48.730;9.114;2022-07-29T02:37:55;19.50;99.90
9125;DHT22;4597;48.730;9.114;2022-07-29T02:40:42;19.50;99.90
9125;DHT22;4597;48.730;9.114;2022-07-29T02:43:09;19.40;99.90
9125;DHT22;4597;48.730;9.114;2022-07-29T02:45:35;19.40;99.90
9125;DHT22;4597;48.730;9.114;2022-07-29T02:48:06;19.40;99.90
9125;DHT22;4597;48.730;9.114;2022-07-29T02:50:36;19.40;99.90
9125;DHT22;4597;48.730;9.114;2022-07-29T02:53:12;19.30;99.90
9125;DHT22;4597;48.730;9.114;2022-07-29T02:55:46;19.30;99.90
9125;DHT22;4597;48.730;9.114;2022-07-29T02:58:28;19.20;99.90
9125;DHT22;4597;48.730;9.114;2022-07-29T03:01:01;19.20;99.90
9125;DHT22;4597;48.730;9.114;2022-07-29T03:03:31;19.10;99.90
9125;DHT22;4597;48.730;9.114;2022-07-29T03:05:58;19.10;99.90
9125;DHT22;4597;48.730;9.114;2022-07-29T03:08:26;19.10;99.90
9125;DHT22;4597;48.730;9.114;2022-07-29T03:10:53;19.10;99.90
9125;DHT22;4597;48.730;9.114;2022-07-29T03:13:19;19.00;99.90
9125;DHT22;4597;48.730;9.114;2022-07-29T03:15:45;19.00;99.90
9125;DHT22;4597;48.730;9.114;2022-07-29T03:18:12;19.00;99.90
9125;DHT22;4597;48.730;9.114;2022-07-29T03:20:39;19.00;99.90
9125;DHT22;4597;48.730;9.114;2022-07-29T03:23:04;18.90;99.90
9125;DHT22;4597;48.730;9.114;2022-07-29T03:25:30;18.90;99.90
9125;DHT22;4597;48.730;9.114;2022-07-29T03:27:56;18.90;99.90
9125;DHT22;4597;48.730;9.114;2022-07-29T03:30:22;18.90;99.90
9125;DHT22;4597;48.730;9.114;2022-07-29T03:32:49;18.80;99.90
9125;DHT22;4597;48.730;9.114;2022-07-29T03:35:14;18.80;99.90
9125;DHT22;4597;48.730;9.114;2022-07-29T03:37:42;18.80;99.90
9125;DHT22;4597;48.730;9.114;2022-07-29T03:40:08;18.80;99.90
9125;DHT22;4597;48.730;9.114;2022-07-29T03:42:38;18.80;99.90
9125;DHT22;4597;48.730;9.114;2022-07-29T03:45:11;18.80;99.90
9125;DHT22;4597;48.730;9.114;2022-07-29T03:47:40;18.80;99.90
9125;DHT22;4597;48.730;9.114;2022-07-29T03:50:10;18.70;99.90
9125;DHT22;4597;48.730;9.114;2022-07-29T03:52:37;18.70;99.90
9125;DHT22;4597;48.730;9.114;2022-07-29T03:55:03;18.70;99.90
9125;DHT22;4597;48.730;9.114;2022-07-29T03:57:30;18.70;99.90
9125;DHT22;4597;48.730;9.114;2022-07-29T03:59:56;18.60;99.90
9125;DHT22;4597;48.730;9.114;2022-07-29T04:02:23;18.60;99.90
9125;DHT22;4597;48.730;9.114;2022-07-29T04:04:50;18.60;99.90
9125;DHT22;4597;48.730;9.114;2022-07-29T04:07:16;18.60;99.90
9125;DHT22;4597;48.730;9.114;2022-07-29T04:09:42;18.60;99.90
9125;DHT22;4597;48.730;9.114;2022-07-29T04:12:08;18.60;99.90
9125;DHT22;4597;48.730;9.114;2022-07-29T04:14:34;18.60;99.90
9125;DHT22;4597;48.730;9.114;2022-07-29T04:17:01;18.60;99.90
9125;DHT22;4597;48.730;9.114;2022-07-29T04:19:26;18.60;99.90
9125;DHT22;4597;48.730;9.114;2022-07-29T04:21:52;18.60;99.90
9125;DHT22;4597;48.730;9.114;2022-07-29T04:24:18;18.60;99.90
9125;DHT22;4597;48.730;9.114;2022-07-29T04:26:46;18.60;99.90
9125;DHT22;4597;48.730;9.114;2022-07-29T04:29:11;18.60;99.90
9125;DHT22;4597;48.730;9.114;2022-07-29T04:31:39;18.60;99.90
9125;DHT22;4597;48.730;9.114;2022-07-29T04:34:05;18.60;99.90
9125;DHT22;4597;48.730;9.114;2022-07-29T04:36:30;18.60;99.90
9125;DHT22;4597;48.730;9.114;2022-07-29T04:38:56;18.60;99.90
9125;DHT22;4597;48.730;9.114;2022-07-29T04:41:22;18.60;99.90
9125;DHT22;4597;48.730;9.114;2022-07-29T04:43:47;18.60;99.90
9125;DHT22;4597;48.730;9.114;2022-07-29T04:46:13;18.60;99.90
9125;DHT22;4597;48.730;9.114;2022-07-29T04:48:38;18.60;99.90
9125;DHT22;4597;48.730;9.114;2022-07-29T04:51:04;18.60;99.90
9125;DHT22;4597;48.730;9.114;2022-07-29T04:53:29;18.60;99.90
9125;DHT22;4597;48.730;9.114;2022-07-29T04:55:55;18.60;99.90
9125;DHT22;4597;48.730;9.114;2022-07-29T04:58:20;18.60;99.90
9125;DHT22;4597;48.730;9.114;2022-07-29T05:00:48;18.60;99.90
9125;DHT22;4597;48.730;9.114;2022-07-29T05:03:13;18.60;99.90
9125;DHT22;4597;48.730;9.114;2022-07-29T05:05:39;18.60;99.90
9125;DHT22;4597;48.730;9.114;2022-07-29T05:08:06;18.70;99.90
9125;DHT22;4597;48.730;9.114;2022-07-29T05:10:31;18.80;99.90
9125;DHT22;4597;48.730;9.114;2022-07-29T05:12:57;18.70;99.90
9125;DHT22;4597;48.730;9.114;2022-07-29T05:15:23;18.70;99.90
9125;DHT22;4597;48.730;9.114;2022-07-29T05:17:49;18.70;99.90
9125;DHT22;4597;48.730;9.114;2022-07-29T05:20:14;18.70;99.90
9125;DHT22;4597;48.730;9.114;2022-07-29T05:22:40;18.70;99.90
9125;DHT22;4597;48.730;9.114;2022-07-29T05:25:06;18.70;99.90
9125;DHT22;4597;48.730;9.114;2022-07-29T05:27:31;18.80;99.90
9125;DHT22;4597;48.730;9.114;2022-07-29T05:29:57;18.80;99.90
9125;DHT22;4597;48.730;9.114;2022-07-29T05:32:22;18.90;99.90
9125;DHT22;4597;48.730;9.114;2022-07-29T05:34:48;18.90;99.90
9125;DHT22;4597;48.730;9.114;2022-07-29T05:37:13;19.00;99.90
9125;DHT22;4597;48.730;9.114;2022-07-29T05:39:40;19.00;99.90
9125;DHT22;4597;48.730;9.114;2022-07-29T05:42:11;19.10;99.90
9125;DHT22;4597;48.730;9.114;2022-07-29T05:44:38;19.20;99.90
9125;DHT22;4597;48.730;9.114;2022-07-29T05:47:03;19.20;99.90
9125;DHT22;4597;48.730;9.114;2022-07-29T05:49:29;19.30;99.90
9125;DHT22;4597;48.730;9.114;2022-07-29T05:51:54;19.30;99.90
9125;DHT22;4597;48.730;9.114;2022-07-29T05:54:20;19.30;99.90
9125;DHT22;4597;48.730;9.114;2022-07-29T05:56:46;19.30;99.90
9125;DHT22;4597;48.730;9.114;2022-07-29T05:59:11;19.40;99.90
9125;DHT22;4597;48.730;9.114;2022-07-29T06:01:37;19.40;99.90
9125;DHT22;4597;48.730;9.114;2022-07-29T06:04:05;19.40;99.90
9125;DHT22;4597;48.730;9.114;2022-07-29T06:06:31;19.50;99.90
9125;DHT22;4597;48.730;9.114;2022-07-29T06:08:57;19.50;99.90
9125;DHT22;4597;48.730;9.114;2022-07-29T06:11:22;19.60;99.90
9125;DHT22;4597;48.730;9.114;2022-07-29T06:13:47;19.70;99.90
9125;DHT22;4597;48.730;9.114;2022-07-29T06:16:13;19.70;99.90
9125;DHT22;4597;48.730;9.114;2022-07-29T06:18:38;19.80;99.90
9125;DHT22;4597;48.730;9.114;2022-07-29T06:21:08;19.80;99.90
9125;DHT22;4597;48.730;9.114;2022-07-29T06:23:34;19.90;99.90
9125;DHT22;4597;48.730;9.114;2022-07-29T06:25:59;19.90;99.90
9125;DHT22;4597;48.730;9.114;2022-07-29T06:28:25;20.00;99.90
9125;DHT22;4597;48.730;9.114;2022-07-29T06:30:51;20.10;99.90
9125;DHT22;4597;48.730;9.114;2022-07-29T06:33:20;20.20;99.90
9125;DHT22;4597;48.730;9.114;2022-07-29T06:35:45;20.30;99.90
9125;DHT22;4597;48.730;9.114;2022-07-29T06:38:15;20.40;99.90
9125;DHT22;4597;48.730;9.114;2022-07-29T06:40:41;20.50;99.90
9125;DHT22;4597;48.730;9.114;2022-07-29T06:43:29;20.60;99.90
9125;DHT22;4597;48.730;9.114;2022-07-29T06:45:58;20.70;99.90
9125;DHT22;4597;48.730;9.114;2022-07-29T06:48:24;20.90;99.90
9125;DHT22;4597;48.730;9.114;2022-07-29T06:50:49;20.90;99.90
9125;DHT22;4597;48.730;9.114;2022-07-29T06:53:14;21.10;99.90
9125;DHT22;4597;48.730;9.114;2022-07-29T06:55:40;21.20;99.90
9125;DHT22;4597;48.730;9.114;2022-07-29T06:58:06;21.20;99.90
9125;DHT22;4597;48.730;9.114;2022-07-29T07:00:33;21.30;99.90
9125;DHT22;4597;48.730;9.114;2022-07-29T07:02:58;21.30;99.90
9125;DHT22;4597;48.730;9.114;2022-07-29T07:05:24;21.30;99.90
9125;DHT22;4597;48.730;9.114;2022-07-29T07:07:49;21.30;99.90
9125;DHT22;4597;48.730;9.114;2022-07-29T07:10:15;21.30;99.90
9125;DHT22;4597;48.730;9.114;2022-07-29T07:12:40;21.30;99.90
9125;DHT22;4597;48.730;9.114;2022-07-29T07:15:06;21.30;99.90
9125;DHT22;4597;48.730;9.114;2022-07-29T07:17:31;21.40;99.90
9125;DHT22;4597;48.730;9.114;2022-07-29T07:19:57;21.40;99.90
9125;DHT22;4597;48.730;9.114;2022-07-29T07:22:23;21.40;99.90
9125;DHT22;4597;48.730;9.114;2022-07-29T07:24:48;21.40;99.90
9125;DHT22;4597;48.730;9.114;2022-07-29T07:27:14;21.50;99.90
9125;DHT22;4597;48.730;9.114;2022-07-29T07:29:39;21.60;99.90
9125;DHT22;4597;48.730;9.114;2022-07-29T07:32:06;21.70;99.90
9125;DHT22;4597;48.730;9.114;2022-07-29T07:34:32;21.90;99.90
9125;DHT22;4597;48.730;9.114;2022-07-29T07:36:58;22.00;99.90
9125;DHT22;4597;48.730;9.114;2022-07-29T07:39:23;21.90;99.90
9125;DHT22;4597;48.730;9.114;2022-07-29T07:41:49;21.90;99.90
9125;DHT22;4597;48.730;9.114;2022-07-29T07:44:14;21.90;99.90
9125;DHT22;4597;48.730;9.114;2022-07-29T07:46:40;22.10;99.90
9125;DHT22;4597;48.730;9.114;2022-07-29T07:49:05;22.10;99.90
9125;DHT22;4597;48.730;9.114;2022-07-29T07:51:31;22.10;99.90
9125;DHT22;4597;48.730;9.114;2022-07-29T07:53:56;22.20;99.90
9125;DHT22;4597;48.730;9.114;2022-07-29T07:56:22;22.20;99.90
9125;DHT22;4597;48.730;9.114;2022-07-29T07:58:47;22.30;99.90
9125;DHT22;4597;48.730;9.114;2022-07-29T08:01:13;22.40;99.90
9125;DHT22;4597;48.730;9.114;2022-07-29T08:03:38;22.60;99.90
9125;DHT22;4597;48.730;9.114;2022-07-29T08:06:04;22.60;99.90
9125;DHT22;4597;48.730;9.114;2022-07-29T08:08:30;22.70;99.90
9125;DHT22;4597;48.730;9.114;2022-07-29T08:10:56;22.70;99.90
9125;DHT22;4597;48.730;9.114;2022-07-29T08:13:24;22.70;99.90
9125;DHT22;4597;48.730;9.114;2022-07-29T08:15:50;22.80;99.90
9125;DHT22;4597;48.730;9.114;2022-07-29T08:18:27;22.80;99.90
9125;DHT22;4597;48.730;9.114;2022-07-29T08:20:53;22.80;99.90
9125;DHT22;4597;48.730;9.114;2022-07-29T08:23:19;22.90;99.90
9125;DHT22;4597;48.730;9.114;2022-07-29T08:25:45;22.90;99.90
9125;DHT22;4597;48.730;9.114;2022-07-29T08:28:10;23.00;99.90
9125;DHT22;4597;48.730;9.114;2022-07-29T08:30:36;23.10;99.90
9125;DHT22;4597;48.730;9.114;2022-07-29T08:33:01;23.10;99.90
9125;DHT22;4597;48.730;9.114;2022-07-29T08:35:27;23.20;99.90
9125;DHT22;4597;48.730;9.114;2022-07-29T08:37:53;23.20;99.90
9125;DHT22;4597;48.730;9.114;2022-07-29T08:40:20;23.20;99.90
9125;DHT22;4597;48.730;9.114;2022-07-29T08:42:46;23.20;99.90
9125;DHT22;4597;48.730;9.114;2022-07-29T08:45:12;23.30;99.90
9125;DHT22;4597;48.730;9.114;2022-07-29T08:47:39;23.30;99.90
9125;DHT22;4597;48.730;9.114;2022-07-29T08:50:08;23.30;99.90
9125;DHT22;4597;48.730;9.114;2022-07-29T08:52:36;23.30;99.90
9125;DHT22;4597;48.730;9.114;2022-07-29T08:55:08;23.30;99.90
9125;DHT22;4597;48.730;9.114;2022-07-29T08:57:34;23.30;99.90
9125;DHT22;4597;48.730;9.114;2022-07-29T09:00:01;23.50;99.90
9125;DHT22;4597;48.730;9.114;2022-07-29T09:02:29;23.60;99.90
9125;DHT22;4597;48.730;9.114;2022-07-29T09:05:00;23.70;99.90
9125;DHT22;4597;48.730;9.114;2022-07-29T09:07:26;23.70;99.90
9125;DHT22;4597;48.730;9.114;2022-07-29T09:09:52;23.70;99.90
9125;DHT22;4597;48.730;9.114;2022-07-29T09:12:18;23.80;99.90
9125;DHT22;4597;48.730;9.114;2022-07-29T09:14:43;23.80;99.90
9125;DHT22;4597;48.730;9.114;2022-07-29T09:17:09;24.00;99.90
9125;DHT22;4597;48.730;9.114;2022-07-29T09:19:37;23.90;99.90
9125;DHT22;4597;48.730;9.114;2022-07-29T09:22:06;23.90;99.90
9125;DHT22;4597;48.730;9.114;2022-07-29T09:24:46;23.90;99.90
9125;DHT22;4597;48.730;9.114;2022-07-29T09:27:25;23.90;99.90
9125;DHT22;4597;48.730;9.114;2022-07-29T09:30:06;24.00;99.90
9125;DHT22;4597;48.730;9.114;2022-07-29T09:32:33;24.10;99.90
9125;DHT22;4597;48.730;9.114;2022-07-29T09:35:15;24.10;99.90
9125;DHT22;4597;48.730;9.114;2022-07-29T09:37:42;24.20;99.90
9125;DHT22;4597;48.730;9.114;2022-07-29T09:40:18;24.30;99.90
9125;DHT22;4597;48.730;9.114;2022-07-29T09:42:45;24.30;99.90
9125;DHT22;4597;48.730;9.114;2022-07-29T09:45:11;24.30;99.90
9125;DHT22;4597;48.730;9.114;2022-07-29T09:47:42;24.30;99.90
9125;DHT22;4597;48.730;9.114;2022-07-29T09:50:10;24.40;99.90
9125;DHT22;4597;48.730;9.114;2022-07-29T09:52:45;24.40;99.90
9125;DHT22;4597;48.730;9.114;2022-07-29T09:55:12;24.50;99.70
9125;DHT22;4597;48.730;9.114;2022-07-29T09:57:37;24.60;97.90
9125;DHT22;4597;48.730;9.114;2022-07-29T10:00:09;24.60;97.40
9125;DHT22;4597;48.730;9.114;2022-07-29T10:02:36;24.70;96.60
9125;DHT22;4597;48.730;9.114;2022-07-29T10:05:06;24.70;95.70
9125;DHT22;4597;48.730;9.114;2022-07-29T10:07:53;24.80;94.20
9125;DHT22;4597;48.730;9.114;2022-07-29T10:10:30;24.80;93.30
9125;DHT22;4597;48.730;9.114;2022-07-29T10:13:00;24.80;92.90
9125;DHT22;4597;48.730;9.114;2022-07-29T10:15:28;24.90;94.90
9125;DHT22;4597;48.730;9.114;2022-07-29T10:17:56;25.00;92.60
9125;DHT22;4597;48.730;9.114;2022-07-29T10:20:23;25.00;93.10
9125;DHT22;4597;48.730;9.114;2022-07-29T10:22:49;25.20;91.90
9125;DHT22;4597;48.730;9.114;2022-07-29T10:25:16;25.30;91.70
9125;DHT22;4597;48.730;9.114;2022-07-29T10:27:47;25.30;91.70
9125;DHT22;4597;48.730;9.114;2022-07-29T10:30:14;25.50;90.30
9125;DHT22;4597;48.730;9.114;2022-07-29T10:39:03;26.00;89.10
9125;DHT22;4597;48.730;9.114;2022-07-29T10:42:06;26.20;89.00
9125;DHT22;4597;48.730;9.114;2022-07-29T10:44:35;26.30;78.60
9125;DHT22;4597;48.730;9.114;2022-07-29T10:47:04;26.30;81.00
9125;DHT22;4597;48.730;9.114;2022-07-29T10:49:30;26.20;77.60
9125;DHT22;4597;48.730;9.114;2022-07-29T10:52:04;26.10;76.10
9125;DHT22;4597;48.730;9.114;2022-07-29T10:57:28;26.00;77.00
9125;DHT22;4597;48.730;9.114;2022-07-29T11:10:43;25.90;74.90
9125;DHT22;4597;48.730;9.114;2022-07-29T11:13:08;26.00;74.60
9125;DHT22;4597;48.730;9.114;2022-07-29T11:15:55;26.10;73.50
9125;DHT22;4597;48.730;9.114;2022-07-29T11:18:20;26.20;72.20
9125;DHT22;4597;48.730;9.114;2022-07-29T11:20:47;26.30;69.20
9125;DHT22;4597;48.730;9.114;2022-07-29T11:23:27;26.40;67.90
9125;DHT22;4597;48.730;9.114;2022-07-29T11:29:03;26.90;65.60
9125;DHT22;4597;48.730;9.114;2022-07-29T11:34:27;27.30;61.10
9125;DHT22;4597;48.730;9.114;2022-07-29T11:39:37;27.40;61.90
9125;DHT22;4597;48.730;9.114;2022-07-29T11:47:24;27.70;58.00
9125;DHT22;4597;48.730;9.114;2022-07-29T11:49:50;27.80;57.50
9125;DHT22;4597;48.730;9.114;2022-07-29T11:52:17;27.80;57.00
9125;DHT22;4597;48.730;9.114;2022-07-29T11:54:43;27.70;57.00
9125;DHT22;4597;48.730;9.114;2022-07-29T11:57:09;27.60;57.20
9125;DHT22;4597;48.730;9.114;2022-07-29T11:59:42;27.50;57.50
9125;DHT22;4597;48.730;9.114;2022-07-29T12:02:08;27.50;57.60
9125;DHT22;4597;48.730;9.114;2022-07-29T12:04:51;27.50;57.00
9125;DHT22;4597;48.730;9.114;2022-07-29T12:07:18;27.40;57.00
9125;DHT22;4597;48.730;9.114;2022-07-29T12:09:50;27.30;56.80
9125;DHT22;4597;48.730;9.114;2022-07-29T12:12:17;27.40;55.80
9125;DHT22;4597;48.730;9.114;2022-07-29T12:14:43;27.30;56.10
9125;DHT22;4597;48.730;9.114;2022-07-29T12:17:44;27.30;56.00
9125;DHT22;4597;48.730;9.114;2022-07-29T12:20:10;27.40;57.40
9125;DHT22;4597;48.730;9.114;2022-07-29T12:22:37;27.30;57.20
9125;DHT22;4597;48.730;9.114;2022-07-29T12:25:10;27.20;57.50
9125;DHT22;4597;48.730;9.114;2022-07-29T12:27:37;27.20;57.50
9125;DHT22;4597;48.730;9.114;2022-07-29T12:30:08;27.00;58.60
9125;DHT22;4597;48.730;9.114;2022-07-29T12:32:42;27.00;57.90
9125;DHT22;4597;48.730;9.114;2022-07-29T12:35:11;26.90;58.50
9125;DHT22;4597;48.730;9.114;2022-07-29T12:37:39;26.80;59.50
9125;DHT22;4597;48.730;9.114;2022-07-29T12:40:06;26.90;59.50
9125;DHT22;4597;48.730;9.114;2022-07-29T12:42:32;26.90;59.00
9125;DHT22;4597;48.730;9.114;2022-07-29T12:44:59;26.90;59.30
9125;DHT22;4597;48.730;9.114;2022-07-29T12:47:25;26.80;59.60
9125;DHT22;4597;48.730;9.114;2022-07-29T12:50:07;26.90;59.20
9125;DHT22;4597;48.730;9.114;2022-07-29T12:52:34;26.90;58.30
9125;DHT22;4597;48.730;9.114;2022-07-29T12:55:00;26.90;59.30
9125;DHT22;4597;48.730;9.114;2022-07-29T12:57:27;27.00;59.20
9125;DHT22;4597;48.730;9.114;2022-07-29T13:02:36;27.20;58.80
9125;DHT22;4597;48.730;9.114;2022-07-29T13:05:03;27.30;57.30
9125;DHT22;4597;48.730;9.114;2022-07-29T13:07:31;27.30;58.40
9125;DHT22;4597;48.730;9.114;2022-07-29T13:10:20;27.40;58.00
9125;DHT22;4597;48.730;9.114;2022-07-29T13:13:09;27.40;54.60
9125;DHT22;4597;48.730;9.114;2022-07-29T13:15:37;27.30;54.20
9125;DHT22;4597;48.730;9.114;2022-07-29T13:18:03;27.20;54.00
9125;DHT22;4597;48.730;9.114;2022-07-29T13:20:30;27.10;53.90
9125;DHT22;4597;48.730;9.114;2022-07-29T13:22:57;27.20;53.40
9125;DHT22;4597;48.730;9.114;2022-07-29T13:25:30;27.20;54.20
9125;DHT22;4597;48.730;9.114;2022-07-29T13:27:57;27.20;52.50
9125;DHT22;4597;48.730;9.114;2022-07-29T13:30:23;27.30;52.20
9125;DHT22;4597;48.730;9.114;2022-07-29T13:32:50;27.30;51.90
9125;DHT22;4597;48.730;9.114;2022-07-29T13:35:16;27.30;51.50
9125;DHT22;4597;48.730;9.114;2022-07-29T13:37:42;27.30;51.30
9125;DHT22;4597;48.730;9.114;2022-07-29T13:40:09;27.20;51.30
9125;DHT22;4597;48.730;9.114;2022-07-29T13:42:35;27.20;51.30
9125;DHT22;4597;48.730;9.114;2022-07-29T13:45:01;27.10;51.20
9125;DHT22;4597;48.730;9.114;2022-07-29T13:47:26;27.00;51.00
9125;DHT22;4597;48.730;9.114;2022-07-29T13:49:52;27.00;51.00
9125;DHT22;4597;48.730;9.114;2022-07-29T13:52:19;27.00;51.00
9125;DHT22;4597;48.730;9.114;2022-07-29T13:54:45;27.00;51.20
9125;DHT22;4597;48.730;9.114;2022-07-29T13:57:11;27.00;51.00
9125;DHT22;4597;48.730;9.114;2022-07-29T13:59:38;27.10;51.10
9125;DHT22;4597;48.730;9.114;2022-07-29T14:02:03;27.30;51.20
9125;DHT22;4597;48.730;9.114;2022-07-29T14:04:29;27.40;51.10
9125;DHT22;4597;48.730;9.114;2022-07-29T14:06:54;27.50;51.40
9125;DHT22;4597;48.730;9.114;2022-07-29T14:09:20;27.70;51.40
9125;DHT22;4597;48.730;9.114;2022-07-29T14:11:45;27.90;51.60
9125;DHT22;4597;48.730;9.114;2022-07-29T14:14:13;28.00;49.70
9125;DHT22;4597;48.730;9.114;2022-07-29T14:16:38;28.00;50.00
9125;DHT22;4597;48.730;9.114;2022-07-29T14:19:04;28.00;50.70
9125;DHT22;4597;48.730;9.114;2022-07-29T14:21:29;27.90;49.90
9125;DHT22;4597;48.730;9.114;2022-07-29T14:23:56;28.00;50.60
9125;DHT22;4597;48.730;9.114;2022-07-29T14:26:21;28.10;49.60
9125;DHT22;4597;48.730;9.114;2022-07-29T14:28:48;28.20;49.80
9125;DHT22;4597;48.730;9.114;2022-07-29T14:31:14;28.40;49.10
9125;DHT22;4597;48.730;9.114;2022-07-29T14:33:40;28.60;48.20
9125;DHT22;4597;48.730;9.114;2022-07-29T14:36:05;28.90;48.20
9125;DHT22;4597;48.730;9.114;2022-07-29T14:38:31;29.10;46.60
9125;DHT22;4597;48.730;9.114;2022-07-29T14:40:56;28.90;46.30
9125;DHT22;4597;48.730;9.114;2022-07-29T14:43:22;28.80;45.80
9125;DHT22;4597;48.730;9.114;2022-07-29T14:45:47;28.70;46.00
9125;DHT22;4597;48.730;9.114;2022-07-29T14:48:13;28.70;45.90
9125;DHT22;4597;48.730;9.114;2022-07-29T14:50:38;28.70;44.70
9125;DHT22;4597;48.730;9.114;2022-07-29T14:53:04;28.80;43.90
9125;DHT22;4597;48.730;9.114;2022-07-29T14:55:29;28.70;44.60
9125;DHT22;4597;48.730;9.114;2022-07-29T14:57:55;28.60;44.30
9125;DHT22;4597;48.730;9.114;2022-07-29T15:00:21;28.50;44.30
9125;DHT22;4597;48.730;9.114;2022-07-29T15:02:48;28.30;44.40
9125;DHT22;4597;48.730;9.114;2022-07-29T15:05:14;28.40;44.70
9125;DHT22;4597;48.730;9.114;2022-07-29T15:07:39;28.40;44.70
9125;DHT22;4597;48.730;9.114;2022-07-29T15:10:05;28.30;44.40
9125;DHT22;4597;48.730;9.114;2022-07-29T15:12:31;28.40;44.60
9125;DHT22;4597;48.730;9.114;2022-07-29T15:14:57;28.40;44.50
9125;DHT22;4597;48.730;9.114;2022-07-29T15:17:22;28.30;42.90
9125;DHT22;4597;48.730;9.114;2022-07-29T15:19:48;28.00;43.60
9125;DHT22;4597;48.730;9.114;2022-07-29T15:22:14;28.10;43.60
9125;DHT22;4597;48.730;9.114;2022-07-29T15:24:39;28.00;43.70
9125;DHT22;4597;48.730;9.114;2022-07-29T15:27:05;28.00;43.70
9125;DHT22;4597;48.730;9.114;2022-07-29T15:29:30;28.00;44.70
9125;DHT22;4597;48.730;9.114;2022-07-29T15:31:56;28.00;44.50
9125;DHT22;4597;48.730;9.114;2022-07-29T15:34:21;28.00;43.70
9125;DHT22;4597;48.730;9.114;2022-07-29T15:36:49;27.90;43.20
9125;DHT22;4597;48.730;9.114;2022-07-29T15:39:15;27.80;44.00
9125;DHT22;4597;48.730;9.114;2022-07-29T15:41:41;27.80;44.50
9125;DHT22;4597;48.730;9.114;2022-07-29T15:44:06;27.90;43.90
9125;DHT22;4597;48.730;9.114;2022-07-29T15:46:32;28.00;43.90
9125;DHT22;4597;48.730;9.114;2022-07-29T15:49:16;28.10;43.60
9125;DHT22;4597;48.730;9.114;2022-07-29T15:51:41;28.20;44.40
9125;DHT22;4597;48.730;9.114;2022-07-29T15:54:07;28.20;43.50
9125;DHT22;4597;48.730;9.114;2022-07-29T15:56:32;28.20;43.50
9125;DHT22;4597;48.730;9.114;2022-07-29T15:58:58;28.20;43.00
9125;DHT22;4597;48.730;9.114;2022-07-29T16:01:24;28.30;43.40
9125;DHT22;4597;48.730;9.114;2022-07-29T16:03:50;28.30;43.00
9125;DHT22;4597;48.730;9.114;2022-07-29T16:06:16;28.30;42.30
9125;DHT22;4597;48.730;9.114;2022-07-29T16:08:42;28.20;43.00
9125;DHT22;4597;48.730;9.114;2022-07-29T16:11:07;28.10;41.70
9125;DHT22;4597;48.730;9.114;2022-07-29T16:13:33;28.00;42.50
9125;DHT22;4597;48.730;9.114;2022-07-29T16:15:58;27.90;42.20
9125;DHT22;4597;48.730;9.114;2022-07-29T16:18:24;27.90;42.50
9125;DHT22;4597;48.730;9.114;2022-07-29T16:20:49;28.00;42.30
9125;DHT22;4597;48.730;9.114;2022-07-29T16:23:15;28.20;41.80
9125;DHT22;4597;48.730;9.114;2022-07-29T16:25:41;28.50;41.90
9125;DHT22;4597;48.730;9.114;2022-07-29T16:28:07;29.00;41.00
9125;DHT22;4597;48.730;9.114;2022-07-29T16:30:33;29.60;39.80
9125;DHT22;4597;48.730;9.114;2022-07-29T16:32:59;30.20;42.50
9125;DHT22;4597;48.730;9.114;2022-07-29T16:35:25;30.60;38.00
9125;DHT22;4597;48.730;9.114;2022-07-29T16:37:51;31.30;35.50
9125;DHT22;4597;48.730;9.114;2022-07-29T16:40:16;31.60;35.80
9125;DHT22;4597;48.730;9.114;2022-07-29T16:42:42;31.30;35.00
9125;DHT22;4597;48.730;9.114;2022-07-29T16:45:07;31.50;34.00